Airfield :
LOGIN :

Register | Disclaimer

   EN    FR    IT 

 










Legend :    VFR   Marginal VFR   IFR   Intensive IFR   Very Intensive IFR
Visi :
Ceiling :
>= 8 km
>= 3000ft
5 to 8 km
1000 to 3000 ft
1500m to 5 km
500 to 1000 ft
800 to 1500m
200 to 500 ft
< 800m
< 200 ft
Symbols :   Thunderstorms  Fog  Heavy snow  Heavy precipitations  Wind > 20 kt
SIGMETs :     Misc.  Thunderstorms  Icing  Turbulence  Mountain Waves  Volcanic Ashes







- Airport Elevation : 171 ft
- IATA code : EGC
- Download approach charts


LFBE - Bergerac

CURRENT METAR :
  • 200900Z AUTO 09002KT 3700 BR BKN002 OVC017 07/06 Q1026 BECMG 9999 NSW OVC018

EXPIRED METARs :
  • 200830Z AUTO 07003KT 3900 BR BKN002 06/05 Q1025 BECMG 9999 NSW OVC018
  • 200800Z AUTO 06003KT 2700 BR NSC 04/03 Q1025 TEMPO VV/// BECMG 5000 BR
  • 200730Z AUTO 04002KT 2000 BR NSC 04/03 Q1025 TEMPO VV/// BECMG 5000 BR
  • 200700Z AUTO 20001KT 5000 BR BKN011 05/04 Q1025 TEMPO 0300 FG VV///
  • 200630Z AUTO 00000KT 6000 OVC011 05/05 Q1025 TEMPO 0300 FG VV///

TAF AMD TAF LFBE
Valid from the 20 at 09:00 until the 21 at 06:00 UTC


200929Z 2009/2106 VRB02KT 5000 BR OVC018
TEMPO 2009/2010 2500 BKN002
BECMG 2010/2012 9999 NSW
BECMG 2012/2014 CAVOK
BECMG 2018/2020 4000 BR
PROB30 2100/2106 0300 FG VV///
No reported NOTAMs for that airfield.



MET'MAP, your aeronautical weather chart ! - Copyright ORBIFLY December 2007 - Disclaimer

ORBIFLY MET'MAP TEAM :

Programming & Development : Alexandra Zaïnal
Concept & Development : Baudouin d'Aumeries
Co-Development & Prog : Marc-Olivier Méhu
Technical & hardware support : Manuel Goepfert

Contact : metmap@orbifly.com




SOURCES & CREDITS :

   NOAA